Nearby METAR Reports

 

KSJC - San Jose, California, USA
Distance from station: NE 14km
Updated: 26/09/2020 05:53
Few Clouds
Few Clouds
 Wind from NNW
Wind: NNW 6 km/h
Temperature: 18°C
Dew Point: 12°C
Humidity: 68%
Barometer: 1016.9 hPa
Clouds: Few Clouds
Visibility: 16 km
Cloud details: Few Clouds 2438 m
2020/09/26 03:53 KSJC 260353Z 34003KT 10SM FEW080 18/12 A3003 RMK AO2 SLP168 T01830117
KNUQ - Moffett Nas/Mtn, California, USA
Distance from station: N 14km
Updated: 25/09/2020 15:55
NOT Current

 Wind from S
Wind: S 7 km/h
Temperature: 15°C
Dew Point: 10°C
Humidity: 72%
Barometer: 1016.6 hPa
Visibility: 16 km
2020/09/25 13:55 KNUQ 251355Z AUTO 18004KT 10SM 15/10 A3002 RMK AO2
 
KPAO - Palo Alto, California, USA
Distance from station: NNW 23km
Updated: 26/09/2020 03:47
NOT Current
Clear
Clear
 Wind from NW
Wind: NW 19 km/h
Temperature: 22°C
Dew Point: 11°C
Humidity: 50%
Barometer: 1015.9 hPa
Clouds: Clear
Visibility: 16 km
2020/09/26 01:47 KPAO 260147Z 31010KT 10SM SKC 22/11 A3000 RMK LAST
KRHV - San Jose/Reid, California, USA
Distance from station: ENE 19km
Updated: 26/09/2020 05:55
Clear
Clear
 Wind from calm
Wind: Calm
Temperature: 18°C
Dew Point: 12°C
Humidity: 68%
Barometer: 1016.9 hPa
Clouds: Clear
Visibility: 16 km
2020/09/26 03:55 KRHV 260355Z 00000KT 10SM SKC 18/12 A3003
 
KOAK - Oakland, California, USA
Distance from station: NNW 50km
Updated: 26/09/2020 05:53
Few Clouds
Few Clouds
 Wind from SSE
Wind: SSE 9 km/h
Temperature: 19°C
Dew Point: 13°C
Humidity: 68%
Barometer: 1016.6 hPa
Clouds: Few Clouds
Visibility: 16 km
Cloud details: Few Clouds 244 m
Few Clouds 6096 m
2020/09/26 03:53 KOAK 260353Z 15005KT 10SM FEW008 FEW200 19/13 A3002 RMK AO2 SLP166 T01890133
KSQL - San Carlos Airpo, California, USA
Distance from station: NW 34km
Updated: 26/09/2020 06:15
Clear
Clear
 Wind from calm
Wind: Calm
Temperature: 18°C
Dew Point: 12°C
Humidity: 68%
Barometer: 1017.3 hPa
Clouds: Clear
Visibility: 16 km
2020/09/26 04:15 KSQL 260415Z AUTO 00000KT 10SM CLR 18/12 A3004 RMK AO2
 
KSFO - San Francisco, California, USA
Distance from station: NW 49km
Updated: 26/09/2020 05:56
Clear
Clear
 Wind from W
Wind: W 28 km/h
Temperature: 17°C
Dew Point: 13°C
Humidity: 77%
Barometer: 1016.6 hPa
Clouds: Clear
Visibility: 16 km
2020/09/26 03:56 KSFO 260356Z 27015KT 10SM CLR 17/13 A3002 RMK AO2 SLP164 T01720128
KE16 - San Martin, California, USA
Distance from station: ESE 43km
Updated: 26/09/2020 06:10

 Wind from N
Wind: N 9 km/h
Temperature: 18°C
Dew Point: 10°C
Humidity: 60%
Barometer: 1017.6 hPa
Visibility: 16 km
2020/09/26 04:10 KE16 260410Z AUTO 35005KT 10SM 18/10 A3005 RMK AO2 PWINO PNO
 
KWVI - Watsonville, California, USA
Distance from station: SSE 44km
Updated: 26/09/2020 05:53
Clear
Clear
 Wind from calm
Wind: Calm
Temperature: 17°C
Dew Point: 13°C
Humidity: 77%
Barometer: 1017.3 hPa
Clouds: Clear
Visibility: 16 km
2020/09/26 03:53 KWVI 260353Z AUTO 00000KT 10SM CLR 17/13 A3004 RMK AO2 SLP171 T01670133
KHAF - Half Moon Bay, California, USA
Distance from station: WNW 50km
Updated: 26/09/2020 06:15
Haze, Clear
Haze, Clear
 Wind from NW
Wind: NW 6 km/h
Temperature: 16°C
Dew Point: 13°C
Humidity: 83%
Barometer: 1017.6 hPa
Summary: Haze
Clouds: Clear
Visibility: 8 km
2020/09/26 04:15 KHAF 260415Z AUTO 31003KT 5SM HZ CLR 16/13 A3005 RMK AO2
 
KHWD - Hayward, California, USA
Distance from station: N 44km
Updated: 26/09/2020 05:54
Clear
Clear
 Wind from SW
Wind: SW 9 km/h
Temperature: 19°C
Dew Point: 13°C
Humidity: 68%
Barometer: 1016.6 hPa
Clouds: Clear
Visibility: 16 km
2020/09/26 03:54 KHWD 260354Z AUTO 22005KT 10SM CLR 19/13 A3002 RMK AO2 SLP176 T01890133
KLVK - Livermore, California, USA
Distance from station: NNE 51km
Updated: 26/09/2020 05:53
Clear
Clear
 Wind from SSW
Wind: SSW 6 km/h
Temperature: 17°C
Dew Point: 12°C
Humidity: 73%
Barometer: 1016.3 hPa
Clouds: Clear
Visibility: 16 km
2020/09/26 03:53 KLVK 260353Z 21003KT 10SM CLR 17/12 A3001 RMK AO2 SLP160 T01720122